| time (UTC) | temp C | wind direction | speed KPH | gust KPH | rain 1hr cm | rain 24hr cm | rain mn cm | humidity % | barometer mb |
| 20260510060002 | 25 | 306 | 6.4 | 17.7 | 0.00 | 0.00 | 0.00 | 67 | 989.8 |
| 20260510054604 | 24 | 82 | 0.0 | 3.2 | 0.00 | 0.00 | 0.00 | 67 | 987.7 |
| 20260510053053 | 25 | 94 | 0.0 | 4.8 | 0.00 | 0.00 | 0.00 | 66 | 986.9 |
| 20260510051552 | 25 | 129 | 1.6 | 4.8 | 0.00 | 0.00 | 0.00 | 65 | 987.1 |
| 20260510050053 | 25 | 117 | 1.6 | 6.4 | 0.00 | 0.00 | 0.00 | 64 | 986.8 |
| 20260510044555 | 25 | 110 | 3.2 | 9.7 | 0.00 | 0.00 | 0.00 | 64 | 986.4 |
| 20260510043048 | 25 | 111 | 1.6 | 9.7 | 0.00 | 0.00 | 0.00 | 64 | 986.3 |
| 20260510041553 | 25 | 108 | 3.2 | 8.0 | 0.00 | 0.00 | 0.00 | 64 | 986.5 |
| 20260510040046 | 25 | 142 | 1.6 | 9.7 | 0.00 | 0.00 | 0.00 | 63 | 986.7 |
| 20260510034548 | 25 | 143 | 1.6 | 6.4 | 0.00 | 0.00 | 0.00 | 62 | 986.7 |
| 20260510033058 | 25 | 148 | 1.6 | 8.0 | 0.00 | 0.00 | 0.00 | 61 | 986.9 |
| 20260510031544 | 26 | 123 | 0.0 | 4.8 | 0.00 | 0.00 | 0.00 | 60 | 986.9 |
| 20260510030044 | 26 | 73 | 1.6 | 4.8 | 0.00 | 0.00 | 0.00 | 58 | 986.9 |
| 20260510024545 | 27 | 124 | 3.2 | 6.4 | 0.00 | 0.00 | 0.00 | 56 | 986.9 |
| 20260510023043 | 27 | 113 | 3.2 | 8.0 | 0.00 | 0.00 | 0.00 | 55 | 986.8 |
| 20260510021542 | 27 | 82 | 3.2 | 6.4 | 0.00 | 0.00 | 0.00 | 54 | 986.5 |
| 20260510020041 | 27 | 120 | 3.2 | 8.0 | 0.00 | 0.00 | 0.00 | 54 | 986.4 |
| 20260510014540 | 27 | 127 | 3.2 | 8.0 | 0.00 | 0.00 | 0.00 | 54 | 986.3 |
| 20260510013042 | 28 | 96 | 3.2 | 9.7 | 0.00 | 0.00 | 0.00 | 54 | 986.1 |
| 20260510011538 | 28 | 100 | 3.2 | 9.7 | 0.00 | 0.00 | 0.00 | 54 | 985.8 |
| 20260510010037 | 28 | 120 | 3.2 | 8.0 | 0.00 | 0.00 | 0.00 | 56 | 985.6 |
| 20260510004537 | 29 | 84 | 3.2 | 11.3 | 0.00 | 0.00 | 0.00 | 55 | 985.5 |
| 20260510003051 | 29 | 25 | 3.2 | 8.0 | 0.00 | 0.00 | 0.00 | 55 | 985.5 |
| 20260510001540 | 30 | 328 | 3.2 | 8.0 | 0.00 | 0.00 | 0.00 | 54 | 985.4 |
| 20260510000036 | 30 | 105 | 3.2 | 11.3 | 0.00 | 0.00 | 0.00 | 54 | 985.5 |
| 20260509234537 | 31 | 2 | 3.2 | 6.4 | 0.00 | 0.00 | 0.00 | 51 | 985.6 |
| 20260509233030 | 31 | 323 | 1.6 | 4.8 | 0.00 | 0.00 | 0.00 | 45 | 985.7 |
| 20260509231528 | 31 | 253 | 1.6 | 6.4 | 0.00 | 0.00 | 0.00 | 45 | 985.7 |
| 20260509230027 | 31 | 122 | 4.8 | 9.7 | 0.00 | 0.00 | 0.00 | 45 | 985.7 |
| 20260509224525 | 31 | 249 | 1.6 | 6.4 | 0.00 | 0.00 | 0.00 | 43 | 985.5 |
| 20260509223024 | 31 | 73 | 3.2 | 9.7 | 0.00 | 0.00 | 0.00 | 45 | 985.6 |
| 20260509221526 | 31 | 124 | 1.6 | 6.4 | 0.00 | 0.00 | 0.00 | 45 | 985.6 |
| 20260509220021 | 31 | 319 | 0.0 | 6.4 | 0.00 | 0.00 | 0.00 | 41 | 985.7 |
| 20260509214530 | 31 | 305 | 1.6 | 9.7 | 0.00 | 0.00 | 0.00 | 43 | 985.8 |
| 20260509213019 | 31 | 66 | 1.6 | 8.0 | 0.00 | 0.00 | 0.00 | 44 | 985.9 |
| 20260509211521 | 31 | 13 | 3.2 | 9.7 | 0.00 | 0.00 | 0.00 | 44 | 986.2 |
| 20260509210015 | 31 | 138 | 3.2 | 11.3 | 0.00 | 0.00 | 0.00 | 49 | 986.4 |
| 20260509204524 | 31 | 6 | 3.2 | 9.7 | 0.00 | 0.00 | 0.00 | 47 | 986.7 |
| 20260509203010 | 31 | 218 | 3.2 | 9.7 | 0.00 | 0.00 | 0.00 | 47 | 986.9 |
| 20260509201508 | 31 | 11 | 4.8 | 12.9 | 0.00 | 0.00 | 0.00 | 49 | 987.1 |
| 20260509200009 | 30 | 5 | 1.6 | 8.0 | 0.00 | 0.00 | 0.00 | 51 | 987.3 |
| 20260509194506 | 30 | 349 | 3.2 | 9.7 | 0.00 | 0.00 | 0.00 | 51 | 987.5 |
| 20260509193003 | 30 | 68 | 3.2 | 11.3 | 0.00 | 0.00 | 0.00 | 54 | 987.6 |
| 20260509191504 | 30 | 46 | 3.2 | 8.0 | 0.00 | 0.00 | 0.00 | 57 | 987.6 |
| 20260509190106 | 30 | 99 | 3.2 | 9.7 | 0.00 | 0.00 | 0.00 | 59 | 987.7 |
| 20260509184558 | 29 | 247 | 1.6 | 8.0 | 0.00 | 0.00 | 0.00 | 62 | 987.8 |
| 20260509183055 | 29 | 49 | 4.8 | 9.7 | 0.00 | 0.00 | 0.00 | 63 | 987.9 |
| 20260509181603 | 28 | 357 | 3.2 | 12.9 | 0.00 | 0.00 | 0.00 | 62 | 988.2 |
| 20260509180050 | 29 | 50 | 4.8 | 14.5 | 0.00 | 0.00 | 0.00 | 63 | 988.2 |
| 20260509174557 | 28 | 359 | 4.8 | 16.1 | 0.00 | 0.00 | 0.00 | 64 | 988.4 |
| 20260509173050 | 28 | 76 | 4.8 | 12.9 | 0.00 | 0.00 | 0.00 | 64 | 988.4 |
| 20260509171549 | 28 | 7 | 3.2 | 8.0 | 0.00 | 0.00 | 0.00 | 64 | 988.6 |
| 20260509170043 | 27 | 304 | 6.4 | 11.3 | 0.00 | 0.00 | 0.00 | 62 | 988.7 |
| 20260509164539 | 27 | 313 | 4.8 | 9.7 | 0.00 | 0.00 | 0.00 | 61 | 988.8 |
| 20260509163035 | 27 | 322 | 3.2 | 11.3 | 0.00 | 0.00 | 0.00 | 62 | 988.8 |
| 20260509161532 | 27 | 1 | 4.8 | 11.3 | 0.00 | 0.00 | 0.00 | 63 | 988.7 |
| 20260509160030 | 26 | 17 | 4.8 | 11.3 | 0.00 | 0.00 | 0.00 | 64 | 988.7 |
| 20260509154529 | 26 | 71 | 3.2 | 8.0 | 0.00 | 0.00 | 0.00 | 64 | 988.6 |
| 20260509153029 | 26 | 309 | 1.6 | 8.0 | 0.00 | 0.00 | 0.00 | 66 | 988.7 |
| 20260509151520 | 25 | 304 | 3.2 | 11.3 | 0.00 | 0.00 | 0.00 | 68 | 988.7 |
| 20260509150020 | 25 | 286 | 4.8 | 11.3 | 0.00 | 0.00 | 0.00 | 71 | 988.8 |
| 20260509144515 | 24 | 306 | 1.6 | 8.0 | 0.00 | 0.00 | 0.00 | 74 | 988.9 |
| 20260509143017 | 23 | 336 | 1.6 | 12.9 | 0.00 | 0.00 | 0.00 | 77 | 988.8 |
| 20260509141507 | 23 | 324 | 4.8 | 9.7 | 0.00 | 0.00 | 0.00 | 78 | 988.8 |
| 20260509140005 | 23 | 32 | 1.6 | 11.3 | 0.00 | 0.00 | 0.00 | 79 | 988.8 |
| 20260509134502 | 22 | 20 | 1.6 | 8.0 | 0.00 | 0.00 | 0.00 | 82 | 988.7 |
| 20260509133104 | 21 | 321 | 1.6 | 9.7 | 0.00 | 0.00 | 0.00 | 84 | 988.6 |
| 20260509131559 | 21 | 1 | 1.6 | 11.3 | 0.00 | 0.00 | 0.00 | 85 | 988.6 |
| 20260509130104 | 20 | 344 | 3.2 | 9.7 | 0.00 | 0.00 | 0.00 | 86 | 988.6 |
| 20260509124557 | 20 | 303 | 1.6 | 11.3 | 0.00 | 0.33 | 0.00 | 87 | 988.4 |
| 20260509123050 | 20 | 70 | 3.2 | 12.9 | 0.00 | 0.33 | 0.00 | 87 | 988.5 |
| 20260509121559 | 20 | 304 | 3.2 | 8.0 | 0.00 | 0.33 | 0.00 | 87 | 988.5 |
| 20260509120045 | 20 | 328 | 3.2 | 12.9 | 0.00 | 0.33 | 0.00 | 86 | 988.4 |
| 20260509114545 | 20 | 299 | 4.8 | 8.0 | 0.00 | 0.33 | 0.00 | 86 | 988.3 |
| 20260509113047 | 20 | 318 | 3.2 | 11.3 | 0.00 | 0.33 | 0.00 | 85 | 987.9 |
| 20260509111539 | 19 | 319 | 3.2 | 9.7 | 0.00 | 0.33 | 0.00 | 86 | 987.5 |
| 20260509110038 | 19 | 311 | 0.0 | 3.2 | 0.00 | 0.33 | 0.00 | 86 | 987.2 |
| 20260509104537 | 20 | 312 | 0.0 | 3.2 | 0.00 | 1.32 | 0.00 | 86 | 986.9 |
| 20260509103036 | 20 | 312 | 0.0 | 1.6 | 0.00 | 1.32 | 0.00 | 86 | 986.8 |
| 20260509101532 | 20 | 312 | 0.0 | 3.2 | 0.00 | 1.32 | 0.00 | 85 | 986.7 |
| 20260509100032 | 21 | 312 | 0.0 | 1.6 | 0.00 | 1.32 | 0.00 | 84 | 986.7 |
| 20260509094529 | 21 | 312 | 0.0 | 3.2 | 0.00 | 1.68 | 0.00 | 83 | 986.3 |
| 20260509093029 | 21 | 252 | 1.6 | 8.0 | 0.00 | 1.68 | 0.00 | 83 | 986.1 |
| 20260509091528 | 21 | 146 | 0.0 | 3.2 | 0.00 | 1.68 | 0.00 | 84 | 985.9 |
| 20260509090028 | 21 | 319 | 1.6 | 6.4 | 0.00 | 1.68 | 0.00 | 85 | 986.4 |
| 20260509084535 | 21 | 205 | 3.2 | 11.3 | 0.00 | 1.70 | 0.00 | 85 | 985.0 |
| 20260509083038 | 21 | 127 | 3.2 | 12.9 | 0.00 | 1.70 | 0.00 | 84 | 984.1 |
| 20260509081524 | 21 | 150 | 4.8 | 19.3 | 0.00 | 1.70 | 0.00 | 85 | 984.9 |
| 20260509080025 | 21 | 194 | 6.4 | 12.9 | 0.00 | 1.70 | 0.00 | 84 | 985.9 |
| 20260509074514 | 21 | 257 | 6.4 | 16.1 | 0.00 | 2.46 | 0.00 | 85 | 986.9 |
| 20260509073012 | 21 | 264 | 4.8 | 12.9 | 0.00 | 2.46 | 0.00 | 85 | 987.3 |
| 20260509071512 | 21 | 203 | 3.2 | 11.3 | 0.00 | 2.46 | 0.00 | 86 | 988.1 |
| 20260509070009 | 21 | 250 | 1.6 | 11.3 | 0.00 | 2.46 | 0.00 | 86 | 988.3 |
| 20260509064506 | 21 | 200 | 1.6 | 9.7 | 0.00 | 2.46 | 0.00 | 86 | 988.8 |
| 20260509063005 | 21 | 285 | 1.6 | 6.4 | 0.00 | 2.46 | 0.00 | 86 | 988.7 |
| 20260509061504 | 20 | 212 | 0.0 | 6.4 | 0.00 | 2.46 | 0.00 | 85 | 988.6 |